Thunder radar more information blitzortung!


Radar de pluja more information rain snow radar


Visita la nostra xarxa de llocs de meteo:

Template documentation
and downloads

And another site



Wind From: 11-12-2017 11:00 Until: 14:59 warning for: Wind Level: Yellow info button

Pagina Historial Weather Underground text

Diari Resum Juny 11, 2017 Unitats:  Imperial    Mètric   Tant
« Previous Dia
SegĂźent Dia »
Diari Setmana Mensual Anual Personalitzada
  Maxima: Minima: Media:
Temperatura: 95.2 °F 62.4 °F 80.1 °F
Punt de rosada: 55.8 °F 37.2 °F 44.6 °F
Humitat: 61 % 16 % 31 %
Wind Speed: 8.1 mph 0 mph 2.5 mph
RĂ fegues de vent: 13 mph - -
Vent:- - SSW
Pression baro: 30.1 in 29.9 in -
Precipitacions: 0 in    
Historical Graphs
 
 
Dades de taula per Juny 11, 2017
Temps Temperatura Punt de rosada Pression baro Vent Wind Speed RĂ fegues de vent Humitat Rainfall Rate (Hourly)
00:00 63.3 °F 49.3 °F 30 in Calm   2 mph 60 % 0 in
00:04 71.2 °F 50.5 °F 30.1 in WSW 2.3 mph 2.3 mph 48 % 0 in
00:10 63.1 °F 48.9 °F 30 in WSW 2 mph 2 mph 60 % 0 in
00:20 63 °F 49.3 °F 30 in Calm   2 mph 61 % 0 in
00:30 62.6 °F 48 °F 30 in Calm   1 mph 59 % 0 in
00:40 62.4 °F 48.4 °F 30 in SW 2 mph 2 mph 60 % 0 in
00:50 62.8 °F 48.2 °F 30 in WSW 2 mph 3 mph 59 % 0 in
01:00 62.4 °F 47.8 °F 30 in Calm   2 mph 59 % 0 in
01:10 62.6 °F 47.7 °F 30 in Calm   1 mph 58 % 0 in
01:20 62.6 °F 47.1 °F 30 in Calm   1 mph 57 % 0 in
01:30 62.4 °F 47.8 °F 30 in Calm     59 % 0 in
01:40 62.6 °F 48 °F 30 in SSW 1 mph 2 mph 59 % 0 in
01:50 63.1 °F 48.9 °F 30 in Calm   1 mph 60 % 0 in
02:00 63.1 °F 48.6 °F 30 in Calm     59 % 0 in
02:10 63.3 °F 48.7 °F 30 in Calm   1 mph 59 % 0 in
02:20 64.8 °F 50.2 °F 30 in Calm     59 % 0 in
02:30 64.6 °F 49.5 °F 30 in SSE 1 mph 2 mph 58 % 0 in
02:40 65.7 °F 50.5 °F 30 in Calm   2 mph 58 % 0 in
02:50 68 °F 51.3 °F 30 in NNW 2 mph 2 mph 55 % 0 in
03:00 69.3 °F 52.3 °F 30 in Calm   2 mph 55 % 0 in
03:10 70.9 °F 52.3 °F 30 in Calm   1 mph 52 % 0 in
03:20 70.7 °F 52.2 °F 30 in Calm   1 mph 52 % 0 in
03:30 71.8 °F 52.7 °F 30 in NW 1 mph 1 mph 51 % 0 in
03:40 71.2 °F 52.7 °F 30 in Calm   2 mph 52 % 0 in
03:50 72 °F 52.9 °F 30 in SW 1 mph 2 mph 51 % 0 in
04:00 71.8 °F 52.2 °F 30 in SW 1 mph 2 mph 50 % 0 in
04:10 72.9 °F 52.5 °F 30 in SW 2 mph 2 mph 49 % 0 in
04:20 74.3 °F 53.2 °F 30 in Calm   3 mph 48 % 0 in
04:30 75.4 °F 54.3 °F 30 in SW 1 mph 2 mph 48 % 0 in
04:40 76.3 °F 54.7 °F 30 in SSW 1 mph 2 mph 47 % 0 in
04:50 78.4 °F 55.2 °F 30 in SSE 1 mph 2 mph 45 % 0 in
05:00 79.5 °F 55.8 °F 30 in SSE 1 mph 3 mph 44 % 0 in
05:10 79.7 °F 55.2 °F 30 in SW 1 mph 3 mph 43 % 0 in
05:20 81 °F 54.3 °F 30 in SSE 1 mph 2 mph 40 % 0 in
05:30 82 °F 54.7 °F 30 in SE 1 mph 3 mph 39 % 0 in
05:40 81.5 °F 52.7 °F 30 in WSW 2 mph 3 mph 37 % 0 in
05:50 83.7 °F 50.7 °F 30 in WSW 1 mph 3 mph 32 % 0 in
06:00 84.6 °F 50.5 °F 30 in SE 1 mph 3 mph 31 % 0 in
06:10 86.2 °F 50.2 °F 30 in SE 1 mph 3 mph 29 % 0 in
06:20 86 °F 49.1 °F 30 in SSE 2 mph 3 mph 28 % 0 in
06:30 87.6 °F 50.5 °F 30 in SSE 1 mph 3 mph 28 % 0 in
06:40 88.5 °F 52.2 °F 30 in WSW 1 mph 3 mph 29 % 0 in
06:50 88.3 °F 50.2 °F 30 in SE 3 mph 3 mph 27 % 0 in
07:00 88 °F 48.7 °F 30 in ESE 3 mph 6 mph 26 % 0 in
07:10 88.9 °F 50.5 °F 30 in ENE 2 mph 3 mph 27 % 0 in
07:20 89.2 °F 49.8 °F 30 in East 3 mph 5 mph 26 % 0 in
07:30 91.8 °F 53.1 °F 30 in SSE 2 mph 4 mph 27 % 0 in
07:40 92.8 °F 50.7 °F 30 in South 2 mph 4 mph 24 % 0 in
07:50 92.3 °F 52.5 °F 30 in SSW 1 mph 5 mph 26 % 0 in
08:00 92.7 °F 49.5 °F 30 in SW 2 mph 3 mph 23 % 0 in
08:10 92.7 °F 50.5 °F 30 in SE 3 mph 3 mph 24 % 0 in
08:20 92.1 °F 47.8 °F 30 in SSE 5 mph 5 mph 22 % 0 in
08:30 90.9 °F 47.8 °F 30 in East 6 mph 6 mph 23 % 0 in
08:40 92.3 °F 49.1 °F 30 in East 3 mph 6 mph 23 % 0 in
08:50 91 °F 48 °F 30 in East 5 mph 6 mph 23 % 0 in
09:00 91.2 °F 48.2 °F 30 in East 7 mph 9 mph 23 % 0 in
09:10 90.7 °F 47.8 °F 30 in East 8 mph 8 mph 23 % 0 in
09:20 90.7 °F 47.8 °F 30 in East 7 mph 7 mph 23 % 0 in
09:30 90.9 °F 47.8 °F 30 in East 5 mph 7 mph 23 % 0 in
09:40 91 °F 48 °F 30 in East 6 mph 7 mph 23 % 0 in
09:50 91.2 °F 48.2 °F 30 in ENE 6 mph 12 mph 23 % 0 in
10:00 90.5 °F 46.6 °F 30 in East 3 mph 8 mph 22 % 0 in
10:10 90.9 °F 46.8 °F 30 in ESE 7 mph 7 mph 22 % 0 in
10:20 92.7 °F 46.9 °F 30 in SE 2 mph 10 mph 21 % 0 in
10:30 94.8 °F 48.7 °F 30 in SSW 3 mph 7 mph 21 % 0 in
10:40 95.2 °F 45 °F 30 in SW 6 mph 6 mph 18 % 0 in
10:50 95.2 °F 46.4 °F 30 in SSW 6 mph 8 mph 19 % 0 in
11:00 94.5 °F 45.9 °F 30 in SSW 6 mph 9 mph 19 % 0 in
11:10 95.2 °F 43.5 °F 30 in SW 3 mph 5 mph 17 % 0 in
11:20 95.2 °F 43.5 °F 30 in WSW 6 mph 8 mph 17 % 0 in
11:30 94.3 °F 44.2 °F 30 in SW 5 mph 10 mph 18 % 0 in
11:40 92.7 °F 43 °F 30 in SW 5 mph 11 mph 18 % 0 in
11:50 92.7 °F 41.5 °F 30 in SW 6 mph 11 mph 17 % 0 in
12:00 92.8 °F 43.2 °F 30 in SW 3 mph 6 mph 18 % 0 in
12:10 92.1 °F 39.6 °F 29.9 in SW 6 mph 13 mph 16 % 0 in
12:20 91.9 °F 39.4 °F 30 in SW 5 mph 11 mph 16 % 0 in
12:30 91.8 °F 40.6 °F 30 in SW 7 mph 8 mph 17 % 0 in
12:40 91.4 °F 40.5 °F 29.9 in SW 6 mph 6 mph 17 % 0 in
12:50 91.8 °F 40.6 °F 29.9 in SW 3 mph 6 mph 17 % 0 in
13:00 90.7 °F 39.9 °F 29.9 in SW 5 mph 11 mph 17 % 0 in
13:10 90.3 °F 37.9 °F 29.9 in SW 6 mph 12 mph 16 % 0 in
13:20 89.6 °F 37.6 °F 29.9 in SW 5 mph 8 mph 16 % 0 in
13:30 89.1 °F 38.7 °F 29.9 in SW 8 mph 10 mph 17 % 0 in
13:40 89.1 °F 38.7 °F 29.9 in SW 3 mph 8 mph 17 % 0 in
13:50 87.8 °F 39 °F 29.9 in SW 6 mph 11 mph 18 % 0 in
14:00 87.8 °F 39 °F 29.9 in SSW 3 mph 9 mph 18 % 0 in
14:10 87.1 °F 38.5 °F 29.9 in SW 6 mph 6 mph 18 % 0 in
14:20 86.9 °F 39.7 °F 30 in SW 5 mph 6 mph 19 % 0 in
14:30 86.4 °F 39.2 °F 30 in SW 5 mph 6 mph 19 % 0 in
14:50 85.6 °F 39.9 °F 30 in SW 2 mph 7 mph 20 % 0 in
19:51 85.3 °F 39.7 °F 30 in SW 2.3 mph 4.3 mph 20 % 0 in
19:56 84.7 °F 37.9 °F 30 in SW 5.8 mph 5.8 mph 19 % 0 in
20:01 84.2 °F 37.6 °F 30 in SW 6.9 mph 6.9 mph 19 % 0 in
20:06 84 °F 38.7 °F 30 in SSE 6.9 mph 6.9 mph 20 % 0 in
20:11 84 °F 39.9 °F 30 in WSW 4.9 mph 4.9 mph 21 % 0 in
20:16 83.7 °F 39.6 °F 30 in SSW 4.6 mph 4.6 mph 21 % 0 in
20:21 83.3 °F 39.4 °F 30 in SW 4.6 mph 4.6 mph 21 % 0 in
20:26 82.9 °F 39 °F 30 in WSW 3.5 mph 3.5 mph 21 % 0 in
20:31 82.6 °F 38.7 °F 30 in SW 8.1 mph 8.1 mph 21 % 0 in
20:36 82 °F 38.1 °F 30 in SW 5.8 mph 5.8 mph 21 % 0 in
20:41 81.7 °F 37.9 °F 30 in WSW 5.8 mph 5.8 mph 21 % 0 in
20:46 81.3 °F 37.6 °F 30 in SW 4.6 mph 4.6 mph 21 % 0 in
20:51 81 °F 37.2 °F 30 in SW 4.6 mph 4.6 mph 21 % 0 in
20:56 80.8 °F 38.5 °F 30 in SW 4.6 mph 4.6 mph 22 % 0 in
21:01 80.2 °F 37.9 °F 30 in SW 3.5 mph 3.5 mph 22 % 0 in
21:06 79.9 °F 37.6 °F 30 in SW 4.6 mph 4.6 mph 22 % 0 in
21:11 79.5 °F 38.5 °F 30 in SW 3.5 mph 3.5 mph 23 % 0 in
21:16 79.2 °F 38.1 °F 30 in SW 2.9 mph 2.9 mph 23 % 0 in
21:21 79 °F 37.9 °F 30 in West 2.3 mph 2.3 mph 23 % 0 in
21:26 78.8 °F 38.8 °F 30 in West 1.2 mph   24 % 0 in
21:31 78.4 °F 38.7 °F 30 in West 1.2 mph   24 % 0 in
21:36 78.3 °F 38.5 °F 30 in NW 2.3 mph 2.3 mph 24 % 0 in
21:41 78.1 °F 39.4 °F 30 in Calm     25 % 0 in
21:46 77.9 °F 39.2 °F 30 in NNE 1.6 mph 1.6 mph 25 % 0 in
21:51 77.7 °F 39 °F 30 in NNE 1.6 mph   25 % 0 in
21:56 77.7 °F 39 °F 30 in Calm     25 % 0 in
22:01 77.5 °F 38.8 °F 30 in Calm     25 % 0 in
22:06 77.5 °F 38.8 °F 30 in Calm     25 % 0 in
22:11 77.2 °F 38.7 °F 30 in WSW 1.6 mph 2 mph 25 % 0 in
22:16 77.2 °F 38.7 °F 30 in WNW 1.2 mph   25 % 0 in
22:21 77 °F 38.5 °F 30 in WSW 2.3 mph 2.3 mph 25 % 0 in
22:26 77 °F 38.5 °F 30 in SW 1.6 mph 1.6 mph 25 % 0 in
22:31 76.8 °F 39.4 °F 30 in West 1.2 mph 1.2 mph 26 % 0 in
22:36 76.6 °F 39.2 °F 30 in Calm     26 % 0 in
22:41 76.5 °F 39 °F 30 in Calm     26 % 0 in
22:46 76.3 °F 38.8 °F 30 in Calm     26 % 0 in
22:50 67.1 °F 43.2 °F 30 in SW 1 mph 2 mph 42 % 0 in
22:51 75.9 °F 38.7 °F 30 in Calm     26 % 0 in
22:56 75.7 °F 38.5 °F 30 in Calm     26 % 0 in
23:00 67.1 °F 43.9 °F 30 in Calm   1 mph 43 % 0 in
23:01 75.6 °F 39.2 °F 30 in Calm     27 % 0 in
23:06 75.4 °F 39 °F 30 in Calm     27 % 0 in
23:10 66.9 °F 43.7 °F 30 in SW 1 mph 2 mph 43 % 0 in
23:11 75.2 °F 38.8 °F 30 in West 0.9 mph   27 % 0 in
23:16 75.2 °F 39.7 °F 30 in Calm     28 % 0 in
23:20 67.1 °F 43.9 °F 30 in SW 2 mph 2 mph 43 % 0 in
23:21 75 °F 39.7 °F 30 in SW 1.2 mph 1.2 mph 28 % 0 in
23:26 74.8 °F 40.5 °F 30 in Calm     29 % 0 in
23:30 67.3 °F 44.6 °F 30 in Calm   2 mph 44 % 0 in
23:31 74.5 °F 40.1 °F 30 in SW 1.2 mph 1.2 mph 29 % 0 in
23:36 74.3 °F 39.9 °F 30 in Calm     29 % 0 in
23:40 67.1 °F 45 °F 30 in Calm   2 mph 45 % 0 in
23:41 74.1 °F 40.6 °F 30 in Calm     30 % 0 in
23:47 73.9 °F 41.4 °F 30 in Calm     31 % 0 in
23:50 66.6 °F 44.1 °F 30 in WSW 1 mph 2 mph 44 % 0 in
23:52 73.8 °F 42.1 °F 30 in SW 0.9 mph   32 % 0 in
23:57 73.4 °F 42.4 °F 30 in Calm     33 % 0 in
Meteo Sesrovires
Elogis d' Weather Underground - 3.25 mb

Guio original per  Jim McMurry - jmcmurry@mwt.net Adaptat per a la plantilla per  Wim van der Kuil - Leuven-Template.eu

Trobareu la nostra informacio del temps tambe a:

Weather Underground

AWEKAS